Time;durP1;ratioP1;P1;durP2;ratioP2;P2;SDS_P1;SDS_P2;PMS_P1;PMS_P2;Temp;Humidity;BMP_temperature;BMP_pressure;BME280_temperature;BME280_humidity;BME280_pressure;Samples;Min_cycle;Max_cycle;Signal;HPM_P1;HPM_P2
2023/12/29 00:02:33;;;;;;;13.50;8.60;;;;;;;3.94;85.66;100113.52;110793;246;38875;-56
2023/12/29 00:05:12;;;;;;;16.00;9.50;;;;;;;3.98;85.68;100111.45;110987;246;41319;-59
2023/12/29 00:07:47;;;;;;;;;;;;;;;4.03;85.56;100109.78;110829;244;153728;-58
2023/12/29 00:10:21;;;;;;;16.10;9.40;;;;;;;4.03;85.75;100103.84;110981;246;40898;-57
2023/12/29 00:12:56;;;;;;;;;;;;;;;4.08;85.69;100103.34;110796;246;154152;-58
2023/12/29 00:15:36;;;;;;;15.00;9.60;;;;;;;4.08;85.64;100099.60;110883;246;40575;-57
2023/12/29 00:18:20;;;;;;;15.20;9.90;;;;;;;4.08;85.72;100101.73;110767;244;154607;-57
2023/12/29 00:21:03;;;;;;;15.40;8.60;;;;;;;4.08;85.75;100098.16;110803;247;40846;-57
2023/12/29 00:23:42;;;;;;;15.00;9.10;;;;;;;4.06;85.90;100097.98;110760;247;39625;-55
2023/12/29 00:26:21;;;;;;;17.50;9.50;;;;;;;4.08;86.00;100090.67;110770;244;154433;-55
2023/12/29 00:28:57;;;;;;;14.70;9.00;;;;;;;4.11;86.11;100092.16;110750;246;41781;-54
2023/12/29 00:31:37;;;;;;;14.20;8.10;;;;;;;4.15;86.01;100094.41;110823;242;154236;-54
2023/12/29 00:34:16;;;;;;;18.30;9.00;;;;;;;4.18;86.20;100090.52;110971;245;40183;-53
2023/12/29 00:36:56;;;;;;;14.80;9.50;;;;;;;4.22;86.10;100085.77;110916;244;155369;-55
2023/12/29 00:39:38;;;;;;;12.00;7.70;;;;;;;4.26;86.20;100088.38;111036;246;40197;-54
2023/12/29 00:42:16;;;;;;;13.00;8.30;;;;;;;4.29;86.18;100090.33;110831;244;155319;-57
2023/12/29 00:44:54;;;;;;;15.80;8.20;;;;;;;4.32;86.20;100087.71;110953;246;38914;-53
2023/12/29 00:47:39;;;;;;;17.00;8.40;;;;;;;4.34;86.29;100094.94;110944;246;40529;-53
2023/12/29 00:50:15;;;;;;;;;;;;;;;4.36;86.32;100086.81;110633;244;157844;-57
2023/12/29 00:53:03;;;;;;;14.50;7.70;;;;;;;4.36;86.20;100085.64;110940;246;40474;-57
2023/12/29 00:55:40;;;;;;;12.50;7.70;;;;;;;4.38;86.40;100086.35;110756;245;153978;-57
2023/12/29 00:58:17;;;;;;;16.60;8.80;;;;;;;4.39;86.28;100088.02;110897;246;39283;-58
2023/12/29 01:00:58;;;;;;;14.40;7.80;;;;;;;4.40;86.15;100088.13;110846;244;154531;-54
2023/12/29 01:03:48;;;;;;;14.20;8.10;;;;;;;4.36;86.15;100085.16;110978;245;39133;-56
2023/12/29 01:06:29;;;;;;;14.60;7.80;;;;;;;4.34;86.18;100085.36;110812;245;154798;-56
2023/12/29 01:09:10;;;;;;;14.30;8.00;;;;;;;4.36;86.20;100086.44;110931;246;39793;-56
2023/12/29 01:11:48;;;;;;;13.30;7.80;;;;;;;4.40;86.07;100085.98;110953;246;39801;-57
2023/12/29 01:14:30;;;;;;;13.50;8.40;;;;;;;4.38;85.97;100080.06;110991;246;39207;-54
2023/12/29 01:17:07;;;;;;;13.60;8.30;;;;;;;4.42;85.96;100075.05;111011;246;40999;-56
2023/12/29 01:19:46;;;;;;;12.80;8.00;;;;;;;4.42;85.96;100072.36;110944;243;153651;-55
2023/12/29 01:22:30;;;;;;;12.10;7.10;;;;;;;4.40;85.83;100064.73;111055;245;39972;-56
2023/12/29 01:25:07;;;;;;;13.70;7.40;;;;;;;4.38;85.75;100065.49;111051;245;40823;-55
2023/12/29 01:27:48;;;;;;;12.90;7.00;;;;;;;4.36;85.98;100062.84;110995;245;40968;-58
2023/12/29 01:30:24;;;;;;;12.60;7.10;;;;;;;4.34;85.82;100062.39;110869;245;155446;-56
2023/12/29 01:33:01;;;;;;;11.00;6.90;;;;;;;4.30;85.72;100058.48;110882;246;40146;-56
2023/12/29 01:35:40;;;;;;;11.20;6.90;;;;;;;4.29;85.59;100057.40;110754;246;38948;-57
2023/12/29 01:38:25;;;;;;;11.10;6.70;;;;;;;4.31;85.84;100055.04;110741;244;156083;-59
2023/12/29 01:41:05;;;;;;;13.00;7.70;;;;;;;4.30;85.67;100048.49;110957;246;40591;-56
2023/12/29 01:44:24;;;;;;;12.10;7.70;;;;;;;4.33;85.70;100043.80;110953;246;39579;-57
2023/12/29 01:47:05;;;;;;;17.80;8.30;;;;;;;4.33;85.73;100040.89;110901;246;39353;-54
2023/12/29 01:49:47;;;;;;;12.00;7.20;;;;;;;4.33;85.91;100036.81;110792;244;154172;-55
2023/12/29 01:52:22;;;;;;;14.90;7.70;;;;;;;4.31;85.70;100033.77;110774;246;39438;-55
2023/12/29 01:54:58;;;;;;;12.90;7.60;;;;;;;4.28;85.68;100023.39;110819;244;154492;-55
2023/12/29 01:57:40;;;;;;;12.80;7.00;;;;;;;4.27;85.56;100022.50;110907;246;39528;-54
2023/12/29 02:00:20;;;;;;;;;;;;;;;4.26;85.55;100020.47;110861;244;154413;-56
2023/12/29 02:03:02;;;;;;;13.20;7.20;;;;;;;4.27;85.75;100013.16;110908;246;40148;-56
2023/12/29 02:05:42;;;;;;;12.30;7.40;;;;;;;4.31;85.73;100007.75;110988;246;39782;-55
2023/12/29 02:08:27;;;;;;;11.30;7.10;;;;;;;4.34;86.00;100003.02;110770;244;154703;-54
2023/12/29 02:11:08;;;;;;;13.20;7.50;;;;;;;4.35;85.67;99997.89;111013;246;39956;-57
2023/12/29 02:13:44;;;;;;;12.40;7.90;;;;;;;4.29;85.47;99995.31;110852;243;153713;-57
2023/12/29 02:16:34;;;;;;;11.40;7.40;;;;;;;4.27;85.48;99996.63;110909;246;38739;-57
2023/12/29 02:19:40;;;;;;;12.30;7.70;;;;;;;4.24;85.62;99995.69;110969;246;39247;-57
2023/12/29 02:22:18;;;;;;;11.80;7.50;;;;;;;4.23;85.61;99992.39;110939;246;38950;-57
2023/12/29 02:24:57;;;;;;;13.00;7.70;;;;;;;4.21;85.76;99991.96;110796;244;154313;-56
2023/12/29 02:27:49;;;;;;;14.20;7.90;;;;;;;4.19;85.87;99990.61;110878;246;39392;-55
2023/12/29 02:30:39;;;;;;;11.40;7.20;;;;;;;4.21;85.72;99986.24;110832;244;155306;-57
2023/12/29 02:33:25;;;;;;;11.30;7.00;;;;;;;4.21;85.90;99985.48;110903;246;39368;-57
2023/12/29 02:36:06;;;;;;;12.00;7.10;;;;;;;4.23;86.12;99979.60;110945;246;39483;-55
2023/12/29 02:38:43;;;;;;;14.50;7.80;;;;;;;4.25;85.90;99979.33;110814;244;154131;-54
2023/12/29 02:41:20;;;;;;;10.60;6.70;;;;;;;4.26;86.05;99970.04;110895;246;40015;-57
2023/12/29 02:43:55;;;;;;;12.80;7.40;;;;;;;4.28;86.33;99967.77;110847;244;154184;-58
2023/12/29 02:46:36;;;;;;;10.70;7.00;;;;;;;4.32;86.12;99967.02;110997;246;39132;-57
2023/12/29 02:49:17;;;;;;;10.50;6.60;;;;;;;4.32;86.17;99970.56;110836;244;153360;-57
2023/12/29 02:51:56;;;;;;;11.90;7.60;;;;;;;4.31;86.06;99965.38;110965;246;40801;-59
2023/12/29 02:54:38;;;;;;;12.00;7.40;;;;;;;4.28;86.02;99969.80;110826;244;153944;-61
2023/12/29 02:57:14;;;;;;;12.50;7.40;;;;;;;4.25;86.19;99967.45;110897;246;38910;-54
2023/12/29 02:59:53;;;;;;;10.50;8.00;;;;;;;4.23;86.24;99966.91;110963;246;39563;-55
2023/12/29 03:02:32;;;;;;;11.70;7.50;;;;;;;4.21;86.17;99967.11;110776;244;155018;-55
2023/12/29 03:05:09;;;;;;;11.50;7.40;;;;;;;4.18;86.13;99972.04;110934;246;39798;-58
2023/12/29 03:07:47;;;;;;;12.90;7.20;;;;;;;4.17;86.05;99972.78;110761;244;155260;-59
2023/12/29 03:10:28;;;;;;;11.40;7.20;;;;;;;4.18;86.22;99971.69;110905;246;39770;-55
2023/12/29 03:13:15;;;;;;;14.50;7.60;;;;;;;4.18;86.29;99967.24;110957;246;40008;-57
2023/12/29 03:15:54;;;;;;;14.30;7.70;;;;;;;4.18;86.33;99967.92;110954;246;40394;-59
2023/12/29 03:18:39;;;;;;;12.80;7.60;;;;;;;4.16;86.48;99961.56;110764;244;153679;-59
2023/12/29 03:21:24;;;;;;;11.60;7.40;;;;;;;4.14;86.41;99958.23;110936;246;39696;-58
2023/12/29 03:23:59;;;;;;;11.20;8.00;;;;;;;4.12;86.57;99960.77;110938;246;39861;-56
2023/12/29 03:26:43;;;;;;;12.50;7.50;;;;;;;4.12;86.52;99955.76;110814;244;155198;-56
2023/12/29 03:29:23;;;;;;;12.30;8.10;;;;;;;4.14;86.81;99952.88;110944;246;39538;-56
2023/12/29 03:32:03;;;;;;;12.30;7.50;;;;;;;4.16;87.02;99952.88;110825;244;153996;-56
2023/12/29 03:34:37;;;;;;;13.30;8.20;;;;;;;4.22;87.07;99949.02;110963;246;39484;-58
2023/12/29 03:37:20;;;;;;;11.80;7.40;;;;;;;4.26;87.07;99949.55;110867;244;154735;-57
2023/12/29 03:40:04;;;;;;;12.80;8.30;;;;;;;4.27;86.93;99946.58;110986;246;39234;-56
2023/12/29 03:42:44;;;;;;;12.80;7.10;;;;;;;4.24;86.84;99955.39;110263;244;771660;-55
2023/12/29 03:45:25;;;;;;;11.90;7.50;;;;;;;4.23;86.87;99948.92;110947;246;40044;-53
2023/12/29 03:48:08;;;;;;;12.30;7.30;;;;;;;4.24;86.91;99949.33;110992;246;39401;-54
2023/12/29 03:50:46;;;;;;;11.40;7.20;;;;;;;4.22;86.81;99949.61;110820;244;153871;-57
2023/12/29 03:53:24;;;;;;;13.00;8.10;;;;;;;4.16;86.87;99948.53;110972;246;39634;-57
2023/12/29 03:56:09;;;;;;;12.90;7.30;;;;;;;4.12;86.72;99947.02;110807;246;153898;-57
2023/12/29 03:58:45;;;;;;;13.60;8.10;;;;;;;4.08;86.85;99945.29;110948;246;38937;-57
2023/12/29 04:01:21;;;;;;;12.20;7.40;;;;;;;4.05;86.90;99939.22;110806;244;154016;-54
2023/12/29 04:03:59;;;;;;;13.30;7.60;;;;;;;4.00;86.89;99939.90;110948;246;39518;-55
2023/12/29 04:06:40;;;;;;;10.90;7.30;;;;;;;3.99;87.17;99936.41;110796;244;154216;-55
2023/12/29 04:09:21;;;;;;;13.60;7.60;;;;;;;3.99;87.20;99938.35;110905;246;40164;-54
2023/12/29 04:12:03;;;;;;;11.80;7.80;;;;;;;3.96;87.02;99932.65;110969;246;40375;-59
2023/12/29 04:14:44;;;;;;;13.60;8.20;;;;;;;3.91;87.17;99933.33;110834;246;154052;-55
2023/12/29 04:17:28;;;;;;;12.00;7.20;;;;;;;3.94;87.35;99933.05;110961;245;39230;-57
2023/12/29 04:20:09;;;;;;;12.00;7.70;;;;;;;3.96;87.18;99932.48;110799;244;153894;-56
2023/12/29 04:22:45;;;;;;;13.90;8.00;;;;;;;3.94;87.17;99931.05;110992;246;39432;-55
2023/12/29 04:25:27;;;;;;;11.10;7.50;;;;;;;3.94;87.29;99925.19;110901;246;154033;-56
2023/12/29 04:28:07;;;;;;;12.10;7.60;;;;;;;3.94;87.43;99917.58;110879;245;39759;-56
2023/12/29 04:30:42;;;;;;;12.90;7.90;;;;;;;3.93;87.40;99912.84;110799;246;39753;-59
2023/12/29 04:33:25;;;;;;;11.30;8.00;;;;;;;3.91;87.56;99902.16;111008;246;39162;-59
2023/12/29 04:36:05;;;;;;;13.90;7.90;;;;;;;3.91;87.46;99904.16;111007;246;39741;-54
2023/12/29 04:38:40;;;;;;;12.00;8.10;;;;;;;3.89;87.41;99903.26;110658;245;153861;-56
2023/12/29 04:41:23;;;;;;;12.60;7.80;;;;;;;3.84;87.52;99905.90;110879;247;39569;-56
2023/12/29 04:44:05;;;;;;;12.90;8.40;;;;;;;3.84;87.58;99913.45;110743;244;153569;-59
2023/12/29 04:46:46;;;;;;;13.90;8.70;;;;;;;3.82;87.67;99907.54;110927;246;39947;-55
2023/12/29 04:49:31;;;;;;;14.30;8.60;;;;;;;3.78;87.69;99906.90;110723;245;154011;-55
2023/12/29 04:52:07;;;;;;;12.50;8.30;;;;;;;3.76;87.71;99902.91;110772;247;40012;-55
2023/12/29 04:54:45;;;;;;;13.10;8.90;;;;;;;3.73;87.57;99909.63;110747;244;155407;-56
2023/12/29 04:57:25;;;;;;;15.30;9.00;;;;;;;3.71;87.67;99910.70;110891;246;40558;-55
2023/12/29 05:00:06;;;;;;;16.80;8.30;;;;;;;3.70;87.91;99909.55;110966;246;40784;-58
2023/12/29 05:02:58;;;;;;;13.70;8.60;;;;;;;3.74;87.97;99916.31;110603;245;155070;-58
2023/12/29 05:05:40;;;;;;;12.60;8.80;;;;;;;3.79;88.11;99911.66;110901;247;39667;-56
2023/12/29 05:08:19;;;;;;;13.70;7.50;;;;;;;3.88;88.39;99903.59;110794;244;153916;-58
2023/12/29 05:11:02;;;;;;;12.80;8.20;;;;;;;3.92;88.32;99902.80;111011;246;39760;-59
2023/12/29 05:13:42;;;;;;;11.90;8.20;;;;;;;3.95;88.29;99904.10;110748;245;154638;-59
2023/12/29 05:16:24;;;;;;;14.00;8.10;;;;;;;3.96;88.42;99900.55;110886;247;39652;-58
2023/12/29 05:19:03;;;;;;;11.60;7.30;;;;;;;4.01;88.53;99901.64;110780;244;155274;-57
2023/12/29 05:21:39;;;;;;;12.00;8.40;;;;;;;4.04;88.68;99902.90;110936;246;39617;-55
2023/12/29 05:24:18;;;;;;;11.80;7.80;;;;;;;4.11;88.63;99901.86;110972;246;39414;-57
2023/12/29 05:26:55;;;;;;;11.80;8.10;;;;;;;4.14;88.61;99899.59;110669;244;153747;-59
2023/12/29 05:29:33;;;;;;;12.20;7.90;;;;;;;4.16;88.48;99900.08;110898;247;40226;-58
2023/12/29 05:32:09;;;;;;;14.00;7.60;;;;;;;4.25;88.61;99896.08;110648;244;154082;-55
2023/12/29 05:34:49;;;;;;;13.10;7.90;;;;;;;4.29;88.52;99894.26;110851;247;40576;-56
2023/12/29 05:37:31;;;;;;;12.00;7.90;;;;;;;4.36;88.77;99889.07;110687;247;154267;-54
2023/12/29 05:40:10;;;;;;;13.50;8.10;;;;;;;4.42;88.67;99886.44;110803;247;39136;-56
2023/12/29 05:42:49;;;;;;;13.10;8.30;;;;;;;4.45;88.50;99885.65;110719;244;153501;-54
2023/12/29 05:45:30;;;;;;;13.20;8.30;;;;;;;4.49;88.92;99886.05;110781;247;39830;-53
2023/12/29 05:48:11;;;;;;;12.80;8.40;;;;;;;4.53;89.00;99892.26;110874;247;39101;-53
2023/12/29 05:50:52;;;;;;;11.60;7.90;;;;;;;4.57;89.06;99892.14;110633;244;155097;-56
2023/12/29 05:53:36;;;;;;;14.10;8.00;;;;;;;4.58;88.95;99894.14;110881;247;40787;-55
2023/12/29 05:56:15;;;;;;;12.80;7.70;;;;;;;4.59;88.85;99894.77;110681;244;154133;-55
2023/12/29 05:58:52;;;;;;;14.10;8.40;;;;;;;4.62;89.22;99893.52;110883;247;39428;-55
2023/12/29 06:01:31;;;;;;;13.80;8.40;;;;;;;4.70;89.18;99889.86;110753;244;154034;-55
2023/12/29 06:04:07;;;;;;;12.20;7.80;;;;;;;4.75;89.00;99890.58;110862;247;39982;-56
2023/12/29 06:06:42;;;;;;;10.70;7.60;;;;;;;4.78;89.01;99876.41;110754;244;154932;-56
2023/12/29 06:09:27;;;;;;;11.60;7.90;;;;;;;4.80;89.01;99873.62;110806;247;39646;-57
2023/12/29 06:12:04;;;;;;;13.30;8.20;;;;;;;4.85;88.95;99873.80;110919;247;39612;-58
2023/12/29 06:14:42;;;;;;;11.90;7.90;;;;;;;4.90;88.81;99872.86;110661;244;155073;-57
2023/12/29 06:17:28;;;;;;;10.60;7.40;;;;;;;4.94;88.66;99870.42;110840;247;39211;-59
2023/12/29 06:20:05;;;;;;;11.80;8.00;;;;;;;4.98;88.51;99868.92;110636;244;154434;-57
2023/12/29 06:22:53;;;;;;;12.70;8.40;;;;;;;5.05;88.66;99861.59;110826;247;40504;-56
2023/12/29 06:25:37;;;;;;;12.70;9.10;;;;;;;5.10;88.42;99863.02;110691;244;155488;-54
2023/12/29 06:28:23;;;;;;;15.50;7.90;;;;;;;5.07;88.33;99859.72;110815;247;39159;-54
2023/12/29 06:31:06;;;;;;;13.10;9.70;;;;;;;5.07;88.30;99861.39;110695;244;153700;-54
2023/12/29 06:33:55;;;;;;;12.70;8.20;;;;;;;5.05;88.24;99863.91;110784;247;41130;-54
2023/12/29 06:36:37;;;;;;;12.10;7.50;;;;;;;5.04;88.31;99860.42;110864;247;41122;-57
2023/12/29 06:39:17;;;;;;;10.80;7.20;;;;;;;5.06;88.32;99855.77;110728;247;39286;-56
2023/12/29 06:42:00;;;;;;;9.80;6.40;;;;;;;5.08;88.25;99853.77;110952;247;39682;-58
2023/12/29 06:44:40;;;;;;;11.80;6.90;;;;;;;5.11;87.93;99861.77;110653;245;154088;-57
2023/12/29 06:47:25;;;;;;;10.20;6.60;;;;;;;5.09;87.92;99858.91;110917;247;40464;-54
2023/12/29 06:50:04;;;;;;;11.00;7.30;;;;;;;5.09;87.85;99861.49;110825;244;155108;-55
2023/12/29 06:52:47;;;;;;;10.40;6.80;;;;;;;5.11;87.79;99862.16;110914;247;40203;-56
2023/12/29 06:55:30;;;;;;;9.50;6.60;;;;;;;5.13;87.76;99860.49;110727;245;153691;-58
2023/12/29 06:58:06;;;;;;;10.50;7.20;;;;;;;5.15;87.73;99865.95;110888;246;39995;-54
2023/12/29 07:00:50;;;;;;;10.90;6.90;;;;;;;5.15;87.53;99867.39;110851;246;155471;-55
2023/12/29 07:03:27;;;;;;;11.00;7.10;;;;;;;5.14;87.58;99861.83;110764;247;39799;-56
2023/12/29 07:06:07;;;;;;;11.20;7.70;;;;;;;5.12;87.46;99858.95;110841;247;39644;-56
2023/12/29 07:08:51;;;;;;;11.90;7.10;;;;;;;5.12;87.35;99851.98;110641;245;154056;-56
2023/12/29 07:11:28;;;;;;;11.10;7.00;;;;;;;5.13;87.49;99848.91;110939;246;39544;-55
2023/12/29 07:14:06;;;;;;;10.30;7.00;;;;;;;5.20;87.41;99849.95;110775;244;155835;-56
2023/12/29 07:16:48;;;;;;;8.70;6.30;;;;;;;5.25;87.45;99840.56;110919;246;39066;-55
2023/12/29 07:19:36;;;;;;;9.50;6.80;;;;;;;5.34;87.51;99839.25;110829;244;154002;-56
2023/12/29 07:22:16;;;;;;;10.00;6.80;;;;;;;5.43;87.35;99832.88;110777;246;39326;-58
2023/12/29 07:24:55;;;;;;;9.60;6.20;;;;;;;5.50;87.35;99828.41;110867;244;152932;-56
2023/12/29 07:27:34;;;;;;;11.30;7.20;;;;;;;5.54;87.12;99825.42;110938;246;40583;-57
2023/12/29 07:30:12;;;;;;;9.90;6.60;;;;;;;5.58;87.13;99827.08;110978;246;41245;-52
2023/12/29 07:32:51;;;;;;;9.40;6.50;;;;;;;5.61;86.85;99827.95;110809;244;155024;-49
2023/12/29 07:35:37;;;;;;;9.00;6.40;;;;;;;5.65;86.85;99828.08;110945;246;39231;-49
2023/12/29 07:38:22;;;;;;;10.90;7.10;;;;;;;5.70;86.89;99828.34;110814;244;154365;-55
2023/12/29 07:41:05;;;;;;;;;;;;;;;5.76;86.55;99829.10;110891;246;40159;-58
2023/12/29 07:43:47;;;;;;;10.30;6.50;;;;;;;5.81;86.63;99820.65;110822;244;139954;-57
2023/12/29 07:46:33;;;;;;;10.40;6.90;;;;;;;5.82;86.38;99819.55;110916;246;39870;-55
2023/12/29 07:49:09;;;;;;;8.50;5.90;;;;;;;5.81;86.38;99818.58;110837;243;156208;-55
2023/12/29 07:51:48;;;;;;;9.50;6.30;;;;;;;5.84;86.38;99815.05;110895;246;39802;-55
2023/12/29 07:54:27;;;;;;;10.50;6.70;;;;;;;5.84;86.18;99816.20;110955;246;39098;-53
2023/12/29 07:57:08;;;;;;;11.10;6.70;;;;;;;5.89;86.22;99811.60;110728;246;153847;-54
2023/12/29 07:59:53;;;;;;;10.60;6.50;;;;;;;5.94;86.13;99819.77;110894;246;39807;-56
2023/12/29 08:02:31;;;;;;;8.20;6.00;;;;;;;5.98;86.09;99817.77;110753;244;153810;-54
2023/12/29 08:05:11;;;;;;;11.00;5.70;;;;;;;5.98;86.05;99809.84;110881;246;39246;-55
2023/12/29 08:07:53;;;;;;;9.80;5.50;;;;;;;6.00;85.93;99810.02;110807;244;154535;-57
2023/12/29 08:10:32;;;;;;;;;;;;;;;6.00;85.93;99808.92;110916;246;41076;-58
2023/12/29 08:13:09;;;;;;;9.90;5.90;;;;;;;6.01;85.77;99806.83;110807;244;140678;-57
2023/12/29 08:15:47;;;;;;;9.80;6.00;;;;;;;6.05;85.89;99801.05;110963;246;39987;-57
2023/12/29 08:18:27;;;;;;;9.70;6.40;;;;;;;6.08;85.81;99812.66;110969;246;39168;-57
2023/12/29 08:21:03;;;;;;;10.10;5.80;;;;;;;6.09;85.68;99807.36;110841;244;153422;-54
2023/12/29 08:23:41;;;;;;;9.70;5.60;;;;;;;6.08;85.68;99797.98;111003;246;39571;-52
2023/12/29 08:26:27;;;;;;;7.30;4.90;;;;;;;6.11;85.52;99796.36;110939;246;39933;-54
2023/12/29 08:29:07;;;;;;;8.40;5.20;;;;;;;6.17;85.45;99792.27;110976;246;39498;-55
2023/12/29 08:31:45;;;;;;;10.30;4.60;;;;;;;6.24;85.40;99794.55;111021;246;40025;-56
2023/12/29 08:34:21;;;;;;;7.00;4.40;;;;;;;6.27;85.21;99794.32;110980;246;39780;-57
2023/12/29 08:36:56;;;;;;;;;;;;;;;6.29;85.21;99796.90;110863;244;154997;-55
2023/12/29 08:39:33;;;;;;;6.70;4.80;;;;;;;6.38;85.13;99791.77;110883;246;38980;-54
2023/12/29 08:42:09;;;;;;;8.70;4.70;;;;;;;6.57;84.85;99799.70;110881;246;39463;-56
2023/12/29 08:44:51;;;;;;;6.40;4.40;;;;;;;6.74;84.58;99803.17;110763;244;153115;-55
2023/12/29 08:47:35;;;;;;;7.80;5.30;;;;;;;6.85;84.54;99804.73;110938;246;41165;-55
2023/12/29 08:50:12;;;;;;;10.20;5.40;;;;;;;6.93;84.20;99801.44;110730;246;154023;-56
2023/12/29 08:52:53;;;;;;;7.90;5.00;;;;;;;7.02;83.78;99795.81;110926;246;39628;-56
2023/12/29 08:55:36;;;;;;;9.10;5.60;;;;;;;7.12;83.89;99798.59;110787;244;154559;-56
2023/12/29 08:58:13;;;;;;;7.90;4.90;;;;;;;7.24;83.73;99792.67;111017;245;38943;-49
2023/12/29 09:00:51;;;;;;;8.50;5.40;;;;;;;7.36;83.65;99794.05;110965;245;39729;-53
2023/12/29 09:03:29;;;;;;;9.60;5.30;;;;;;;7.56;83.22;99790.71;110917;245;39674;-57
2023/12/29 09:06:08;;;;;;;8.40;5.50;;;;;;;7.68;83.16;99791.75;110982;245;39154;-62
2023/12/29 09:08:54;;;;;;;8.90;5.80;;;;;;;7.93;82.66;99788.02;110970;243;154550;-60
2023/12/29 09:11:32;;;;;;;9.30;6.10;;;;;;;8.13;81.73;99784.65;110956;245;40076;-51
2023/12/29 09:14:08;;;;;;;8.10;6.00;;;;;;;8.19;81.22;99790.31;110958;245;39277;-52
2023/12/29 09:16:54;;;;;;;11.10;6.30;;;;;;;8.29;81.05;99790.87;110993;245;40109;-59
2023/12/29 09:19:36;;;;;;;9.00;6.10;;;;;;;8.46;80.71;99778.89;110861;243;154767;-58
2023/12/29 09:22:18;;;;;;;8.80;6.00;;;;;;;8.57;80.43;99777.31;110999;245;40011;-58
2023/12/29 09:24:59;;;;;;;9.30;5.90;;;;;;;8.63;80.13;99771.49;110973;245;39800;-63
2023/12/29 09:27:35;;;;;;;7.50;5.20;;;;;;;8.92;80.03;99772.34;110761;246;39757;-59
2023/12/29 09:30:13;;;;;;;7.40;5.50;;;;;;;9.17;79.26;99773.75;110937;246;39656;-55
2023/12/29 09:32:51;;;;;;;8.90;6.10;;;;;;;9.41;78.81;99774.09;110767;243;153256;-54
2023/12/29 09:35:27;;;;;;;7.30;5.30;;;;;;;9.68;77.84;99771.81;110905;246;40854;-54
2023/12/29 09:38:06;;;;;;;8.70;4.90;;;;;;;9.92;77.50;99768.81;110816;244;154758;-55
2023/12/29 09:40:45;;;;;;;8.30;5.50;;;;;;;10.21;76.49;99762.02;110929;246;39195;-56
2023/12/29 09:43:28;;;;;;;7.80;5.80;;;;;;;10.40;75.84;99761.70;110831;244;153819;-57
2023/12/29 09:46:10;;;;;;;6.70;5.20;;;;;;;10.49;75.59;99766.08;110947;246;40723;-56
2023/12/29 09:49:03;;;;;;;8.00;6.00;;;;;;;10.42;74.93;99765.97;110760;246;39350;-57
2023/12/29 09:51:42;;;;;;;7.70;5.90;;;;;;;10.09;74.68;99766.46;110973;245;39454;-55
2023/12/29 09:54:26;;;;;;;7.10;5.90;;;;;;;10.09;74.42;99762.97;110994;245;40440;-55
2023/12/29 09:57:11;;;;;;;7.30;5.90;;;;;;;10.58;74.62;99757.13;110787;244;154350;-55
2023/12/29 09:59:54;;;;;;;8.30;5.50;;;;;;;10.86;73.10;99756.09;110966;246;39007;-57
2023/12/29 10:02:35;;;;;;;7.50;5.60;;;;;;;10.70;73.05;99760.00;110812;243;153597;-55
2023/12/29 10:05:12;;;;;;;7.60;5.60;;;;;;;10.53;73.36;99761.02;110990;245;39459;-56
2023/12/29 10:07:57;;;;;;;7.10;5.60;;;;;;;10.47;73.02;99759.67;110779;244;154901;-60
2023/12/29 10:10:49;;;;;;;8.20;5.90;;;;;;;10.22;73.20;99766.63;110873;246;40586;-57
2023/12/29 10:13:39;;;;;;;8.80;5.30;;;;;;;10.09;73.21;99763.89;110950;246;40274;-57
2023/12/29 10:16:26;;;;;;;8.70;6.20;;;;;;;9.93;73.52;99768.17;110922;246;39257;-56
2023/12/29 10:19:24;;;;;;;8.80;5.50;;;;;;;9.88;73.77;99765.38;110904;246;39547;-56
2023/12/29 10:22:04;;;;;;;8.10;6.10;;;;;;;9.85;73.81;99763.27;110845;247;41022;-57
2023/12/29 10:24:43;;;;;;;9.70;6.10;;;;;;;9.88;74.23;99758.52;110844;247;39714;-56
2023/12/29 10:27:19;;;;;;;9.70;5.70;;;;;;;9.83;74.28;99757.41;110765;243;153403;-53
2023/12/29 10:29:55;;;;;;;6.70;5.60;;;;;;;9.81;74.12;99756.24;110941;246;39375;-55
2023/12/29 10:32:36;;;;;;;8.10;6.30;;;;;;;9.71;74.21;99752.49;110776;243;154699;-55
2023/12/29 10:35:15;;;;;;;10.50;6.10;;;;;;;9.63;74.24;99748.36;110884;246;40634;-57
2023/12/29 10:37:53;;;;;;;8.40;5.70;;;;;;;9.52;74.54;99742.10;110788;244;153868;-55
2023/12/29 10:40:44;;;;;;;8.10;5.70;;;;;;;9.44;74.78;99744.72;110869;246;39115;-53
2023/12/29 10:43:31;;;;;;;6.90;5.60;;;;;;;9.28;74.66;99755.30;110852;246;39293;-54
2023/12/29 10:46:12;;;;;;;8.50;5.90;;;;;;;9.20;75.19;99754.08;110924;245;38956;-53
2023/12/29 10:48:48;;;;;;;8.60;5.40;;;;;;;9.22;75.49;99755.14;110916;245;39743;-57
2023/12/29 10:51:31;;;;;;;6.00;5.10;;;;;;;9.27;75.41;99758.23;110765;244;154083;-56
2023/12/29 10:54:20;;;;;;;8.10;5.20;;;;;;;9.28;75.45;99756.72;110921;246;39300;-54
2023/12/29 10:57:13;;;;;;;7.70;5.20;;;;;;;9.29;75.29;99757.38;110727;244;153928;-58
2023/12/29 10:59:59;;;;;;;6.70;4.60;;;;;;;9.30;75.56;99753.27;110940;246;39294;-56
2023/12/29 11:02:42;;;;;;;7.10;5.40;;;;;;;9.30;75.56;99751.45;110810;244;153483;-62
2023/12/29 11:05:26;;;;;;;8.00;5.90;;;;;;;9.29;75.57;99748.66;110937;245;40333;-52
2023/12/29 11:08:18;;;;;;;8.80;5.70;;;;;;;9.24;75.57;99745.53;110793;244;154619;-54
2023/12/29 11:10:57;;;;;;;8.30;5.30;;;;;;;9.18;75.68;99748.14;110880;246;39033;-55
2023/12/29 11:13:33;;;;;;;7.70;5.30;;;;;;;9.21;75.73;99743.45;110914;246;155622;-54
2023/12/29 11:16:10;;;;;;;7.30;4.80;;;;;;;9.22;75.72;99744.89;111121;245;38823;-55
2023/12/29 11:18:46;;;;;;;8.50;5.90;;;;;;;9.21;75.91;99741.29;111009;245;38921;-57
2023/12/29 11:21:27;;;;;;;8.30;5.60;;;;;;;9.22;75.71;99741.94;110788;244;154957;-53
2023/12/29 11:24:07;;;;;;;12.50;7.10;;;;;;;9.18;75.86;99733.18;110903;246;40884;-54
2023/12/29 11:27:07;;;;;;;10.40;6.40;;;;;;;9.21;76.00;99727.47;110872;243;154518;-56
2023/12/29 11:29:44;;;;;;;7.70;5.70;;;;;;;9.18;75.88;99717.59;110947;245;40087;-54
2023/12/29 11:32:25;;;;;;;9.80;5.60;;;;;;;9.13;75.89;99716.17;110828;244;153376;-52
2023/12/29 11:35:17;;;;;;;8.70;5.20;;;;;;;9.11;75.99;99704.86;110894;246;39742;-57
2023/12/29 11:38:44;;;;;;;8.50;5.70;;;;;;;9.11;76.03;99703.65;110824;244;155413;-57
2023/12/29 11:41:32;;;;;;;8.10;5.90;;;;;;;9.13;76.08;99702.55;110425;246;668753;-57
2023/12/29 11:44:25;;;;;;;7.40;5.10;;;;;;;9.18;76.23;99703.61;110773;244;153850;-57
2023/12/29 11:47:06;;;;;;;8.60;5.90;;;;;;;9.20;76.17;99698.98;110876;246;40462;-55
2023/12/29 11:50:21;;;;;;;7.90;5.70;;;;;;;9.21;76.15;99689.53;110824;244;153659;-56
2023/12/29 11:52:59;;;;;;;6.60;5.00;;;;;;;9.24;76.26;99679.56;110902;246;40735;-55
2023/12/29 11:55:48;;;;;;;6.90;4.50;;;;;;;9.31;76.12;99679.31;110844;244;155232;-54
2023/12/29 11:58:31;;;;;;;12.10;6.10;;;;;;;9.35;76.20;99679.59;110855;246;39649;-55
2023/12/29 12:01:08;;;;;;;8.20;5.40;;;;;;;9.38;76.14;99674.13;110084;244;1013183;-56
2023/12/29 12:03:45;;;;;;;8.00;5.70;;;;;;;9.40;76.15;99671.53;110669;245;104842;-55
2023/12/29 12:06:40;;;;;;;7.00;5.50;;;;;;;9.39;76.04;99669.32;110973;247;40116;-57
2023/12/29 12:09:35;;;;;;;8.20;5.30;;;;;;;9.37;76.30;99675.82;110985;247;40052;-55
2023/12/29 12:12:15;;;;;;;7.20;5.20;;;;;;;9.35;76.32;99679.67;110944;247;40163;-61
2023/12/29 12:14:55;;;;;;;8.70;5.80;;;;;;;9.28;76.51;99689.38;110945;247;38825;-56
2023/12/29 12:17:47;;;;;;;8.70;5.60;;;;;;;9.22;76.58;99693.89;110972;247;39486;-55
2023/12/29 12:20:26;;;;;;;8.00;5.80;;;;;;;9.20;76.81;99696.90;110975;247;39570;-54
2023/12/29 12:23:11;;;;;;;8.10;6.00;;;;;;;9.20;76.97;99694.96;110910;247;39247;-56
2023/12/29 12:25:51;;;;;;;11.30;6.80;;;;;;;9.22;77.13;99696.23;110909;247;39551;-58
2023/12/29 12:28:29;;;;;;;8.20;5.90;;;;;;;9.22;77.02;99691.17;110962;247;40994;-63
2023/12/29 12:31:21;;;;;;;8.90;6.00;;;;;;;9.22;77.20;99690.16;110875;247;39472;-55
2023/12/29 12:34:05;;;;;;;9.70;6.30;;;;;;;9.20;77.12;99684.48;110776;247;39693;-53
2023/12/29 12:36:52;;;;;;;9.70;6.10;;;;;;;9.18;77.06;99689.05;110755;247;38683;-57
2023/12/29 12:39:41;;;;;;;9.10;5.00;;;;;;;9.13;77.29;99690.60;110386;246;154427;-59
2023/12/29 12:42:24;;;;;;;8.10;4.30;;;;;;;9.12;77.17;99685.17;110943;246;40933;-64